sensor_id;sensor_type;location;lat;lon;timestamp;pressure;altitude;pressure_sealevel;temperature;humidity
73338;BME280;61575;49.908;35.556;2023-09-30T00:01:08;99896.88;;;11.85;72.63
73338;BME280;61575;49.908;35.556;2023-09-30T00:04:11;99890.13;;;11.81;72.50
73338;BME280;61575;49.908;35.556;2023-09-30T00:07:13;99888.47;;;11.80;72.61
73338;BME280;61575;49.908;35.556;2023-09-30T00:10:15;99893.84;;;11.80;72.61
73338;BME280;61575;49.908;35.556;2023-09-30T00:13:17;99884.25;;;11.77;72.73
73338;BME280;61575;49.908;35.556;2023-09-30T00:16:19;99883.41;;;11.77;72.88
73338;BME280;61575;49.908;35.556;2023-09-30T00:19:21;99884.59;;;11.74;72.98
73338;BME280;61575;49.908;35.556;2023-09-30T00:22:27;99884.75;;;11.73;72.81
73338;BME280;61575;49.908;35.556;2023-09-30T00:25:30;99889.47;;;11.71;72.89
73338;BME280;61575;49.908;35.556;2023-09-30T00:28:32;99884.41;;;11.68;72.86
73338;BME280;61575;49.908;35.556;2023-09-30T00:31:34;99880.06;;;11.67;72.85
73338;BME280;61575;49.908;35.556;2023-09-30T00:34:36;99875.69;;;11.66;72.89
73338;BME280;61575;49.908;35.556;2023-09-30T00:37:39;99881.22;;;11.64;72.81
73338;BME280;61575;49.908;35.556;2023-09-30T00:40:47;99871.47;;;11.63;72.36
73338;BME280;61575;49.908;35.556;2023-09-30T00:43:49;99876.19;;;11.61;72.44
73338;BME280;61575;49.908;35.556;2023-09-30T00:46:53;99874.00;;;11.57;72.67
73338;BME280;61575;49.908;35.556;2023-09-30T00:49:56;99879.53;;;11.55;72.58
73338;BME280;61575;49.908;35.556;2023-09-30T00:53:00;99874.50;;;11.52;72.75
73338;BME280;61575;49.908;35.556;2023-09-30T00:56:02;99877.53;;;11.49;72.75
73338;BME280;61575;49.908;35.556;2023-09-30T00:59:04;99873.16;;;11.48;72.46
73338;BME280;61575;49.908;35.556;2023-09-30T01:02:06;99867.09;;;11.46;72.61
73338;BME280;61575;49.908;35.556;2023-09-30T01:05:09;99864.75;;;11.43;72.99
73338;BME280;61575;49.908;35.556;2023-09-30T01:08:11;99863.06;;;11.42;72.75
73338;BME280;61575;49.908;35.556;2023-09-30T01:11:13;99868.59;;;11.40;72.54
73338;BME280;61575;49.908;35.556;2023-09-30T01:14:26;99864.06;;;11.41;72.49
73338;BME280;61575;49.908;35.556;2023-09-30T01:17:29;99874.31;;;11.37;72.39
73338;BME280;61575;49.908;35.556;2023-09-30T01:20:32;99870.28;;;11.33;72.36
73338;BME280;61575;49.908;35.556;2023-09-30T01:23:35;99863.38;;;11.31;72.62
73338;BME280;61575;49.908;35.556;2023-09-30T01:26:37;99863.72;;;11.28;72.93
73338;BME280;61575;49.908;35.556;2023-09-30T01:29:39;99863.22;;;11.24;73.09
73338;BME280;61575;49.908;35.556;2023-09-30T01:32:41;99873.28;;;11.22;72.80
73338;BME280;61575;49.908;35.556;2023-09-30T01:35:43;99862.88;;;11.19;72.95
73338;BME280;61575;49.908;35.556;2023-09-30T01:38:45;99864.03;;;11.16;72.97
73338;BME280;61575;49.908;35.556;2023-09-30T01:41:47;99857.31;;;11.12;72.82
73338;BME280;61575;49.908;35.556;2023-09-30T01:44:49;99872.09;;;11.08;73.11
73338;BME280;61575;49.908;35.556;2023-09-30T01:47:51;99867.03;;;11.05;73.09
73338;BME280;61575;49.908;35.556;2023-09-30T01:50:53;99867.19;;;11.04;73.17
73338;BME280;61575;49.908;35.556;2023-09-30T01:53:55;99872.75;;;11.02;73.17
73338;BME280;61575;49.908;35.556;2023-09-30T01:56:58;99870.22;;;11.01;73.13
73338;BME280;61575;49.908;35.556;2023-09-30T02:00:00;99859.78;;;10.98;73.18
73338;BME280;61575;49.908;35.556;2023-09-30T02:03:02;99859.28;;;10.94;73.35
73338;BME280;61575;49.908;35.556;2023-09-30T02:06:04;99862.97;;;10.93;73.27
73338;BME280;61575;49.908;35.556;2023-09-30T02:09:07;99861.44;;;10.90;73.43
73338;BME280;61575;49.908;35.556;2023-09-30T02:12:10;99856.25;;;10.89;73.41
73338;BME280;61575;49.908;35.556;2023-09-30T02:15:13;99862.09;;;10.84;73.64
73338;BME280;61575;49.908;35.556;2023-09-30T02:18:15;99856.06;;;10.82;74.00
73338;BME280;61575;49.908;35.556;2023-09-30T02:21:17;99853.53;;;10.81;73.90
73338;BME280;61575;49.908;35.556;2023-09-30T02:24:19;99853.00;;;10.77;73.90
73338;BME280;61575;49.908;35.556;2023-09-30T02:27:21;99849.50;;;10.77;73.86
73338;BME280;61575;49.908;35.556;2023-09-30T02:30:23;99848.97;;;10.73;74.05
73338;BME280;61575;49.908;35.556;2023-09-30T02:33:26;99850.97;;;10.71;74.22
73338;BME280;61575;49.908;35.556;2023-09-30T02:36:28;99848.63;;;10.68;74.02
73338;BME280;61575;49.908;35.556;2023-09-30T02:39:30;99856.97;;;10.65;74.07
73338;BME280;61575;49.908;35.556;2023-09-30T02:42:32;99851.59;;;10.65;73.89
73338;BME280;61575;49.908;35.556;2023-09-30T02:45:34;99858.97;;;10.63;73.79
73338;BME280;61575;49.908;35.556;2023-09-30T02:48:36;99845.03;;;10.59;73.85
73338;BME280;61575;49.908;35.556;2023-09-30T02:51:38;99847.72;;;10.59;73.80
73338;BME280;61575;49.908;35.556;2023-09-30T02:54:40;99854.09;;;10.58;73.66
73338;BME280;61575;49.908;35.556;2023-09-30T02:57:42;99848.19;;;10.55;73.93
73338;BME280;61575;49.908;35.556;2023-09-30T03:00:48;99849.19;;;10.54;73.97
73338;BME280;61575;49.908;35.556;2023-09-30T03:03:51;99850.22;;;10.53;73.97
73338;BME280;61575;49.908;35.556;2023-09-30T03:06:53;99845.84;;;10.52;73.64
73338;BME280;61575;49.908;35.556;2023-09-30T03:09:57;99846.84;;;10.51;73.34
73338;BME280;61575;49.908;35.556;2023-09-30T03:13:00;99842.13;;;10.45;74.47
73338;BME280;61575;49.908;35.556;2023-09-30T03:16:05;99841.13;;;10.46;73.92
73338;BME280;61575;49.908;35.556;2023-09-30T03:19:07;99841.28;;;10.44;74.04
73338;BME280;61575;49.908;35.556;2023-09-30T03:22:13;99835.06;;;10.44;74.15
73338;BME280;61575;49.908;35.556;2023-09-30T03:25:16;99840.44;;;10.44;74.15
73338;BME280;61575;49.908;35.556;2023-09-30T03:28:22;99837.06;;;10.42;74.23
73338;BME280;61575;49.908;35.556;2023-09-30T03:31:24;99837.06;;;10.42;74.26
73338;BME280;61575;49.908;35.556;2023-09-30T03:34:27;99826.50;;;10.40;74.45
73338;BME280;61575;49.908;35.556;2023-09-30T03:37:31;99830.19;;;10.39;74.30
73338;BME280;61575;49.908;35.556;2023-09-30T03:40:33;99833.03;;;10.38;74.31
73338;BME280;61575;49.908;35.556;2023-09-30T03:43:35;99835.72;;;10.38;74.47
73338;BME280;61575;49.908;35.556;2023-09-30T03:46:42;99832.19;;;10.37;74.05
73338;BME280;61575;49.908;35.556;2023-09-30T03:49:44;99842.06;;;10.37;74.29
73338;BME280;61575;49.908;35.556;2023-09-30T03:52:46;99834.72;;;10.39;74.76
73338;BME280;61575;49.908;35.556;2023-09-30T03:55:49;99840.75;;;10.41;74.52
73338;BME280;61575;49.908;35.556;2023-09-30T03:58:51;99841.44;;;10.43;74.67
73338;BME280;61575;49.908;35.556;2023-09-30T04:01:54;99846.47;;;10.46;74.85
73338;BME280;61575;49.908;35.556;2023-09-30T04:04:56;99842.63;;;10.48;74.58
73338;BME280;61575;49.908;35.556;2023-09-30T04:07:59;99846.00;;;10.50;74.47
73338;BME280;61575;49.908;35.556;2023-09-30T04:11:03;99849.03;;;10.55;74.69
73338;BME280;61575;49.908;35.556;2023-09-30T04:14:06;99850.25;;;10.61;74.55
73338;BME280;61575;49.908;35.556;2023-09-30T04:17:09;99850.13;;;10.71;74.46
73338;BME280;61575;49.908;35.556;2023-09-30T04:20:11;99853.84;;;10.78;74.73
73338;BME280;61575;49.908;35.556;2023-09-30T04:23:18;99852.03;;;10.86;74.99
73338;BME280;61575;49.908;35.556;2023-09-30T04:26:23;99855.44;;;10.97;74.67
73338;BME280;61575;49.908;35.556;2023-09-30T04:29:26;99855.13;;;11.08;74.85
73338;BME280;61575;49.908;35.556;2023-09-30T04:32:29;99860.19;;;11.19;74.74
73338;BME280;61575;49.908;35.556;2023-09-30T04:35:31;99857.84;;;11.32;74.56
73338;BME280;61575;49.908;35.556;2023-09-30T04:38:33;99858.19;;;11.45;74.49
73338;BME280;61575;49.908;35.556;2023-09-30T04:41:35;99857.69;;;11.58;74.43
73338;BME280;61575;49.908;35.556;2023-09-30T04:44:37;99863.75;;;11.76;74.54
73338;BME280;61575;49.908;35.556;2023-09-30T04:47:40;99867.25;;;11.93;74.29
73338;BME280;61575;49.908;35.556;2023-09-30T04:50:42;99859.84;;;12.11;74.06
73338;BME280;61575;49.908;35.556;2023-09-30T04:53:45;99864.19;;;12.29;73.93
73338;BME280;61575;49.908;35.556;2023-09-30T04:56:48;99858.09;;;12.43;73.56
73338;BME280;61575;49.908;35.556;2023-09-30T04:59:49;99862.56;;;12.59;73.17
73338;BME280;61575;49.908;35.556;2023-09-30T05:02:52;99867.91;;;12.75;72.82
73338;BME280;61575;49.908;35.556;2023-09-30T05:05:54;99872.03;;;12.94;72.50
73338;BME280;61575;49.908;35.556;2023-09-30T05:09:00;99866.19;;;13.13;72.33
73338;BME280;61575;49.908;35.556;2023-09-30T05:12:02;99865.56;;;13.34;71.79
73338;BME280;61575;49.908;35.556;2023-09-30T05:15:06;99862.41;;;13.53;70.82
73338;BME280;61575;49.908;35.556;2023-09-30T05:18:08;99865.25;;;13.74;70.49
73338;BME280;61575;49.908;35.556;2023-09-30T05:21:11;99859.63;;;13.99;68.84
73338;BME280;61575;49.908;35.556;2023-09-30T05:24:13;99864.78;;;14.23;67.71
73338;BME280;61575;49.908;35.556;2023-09-30T05:27:15;99860.22;;;14.53;66.11
73338;BME280;61575;49.908;35.556;2023-09-30T05:30:17;99866.81;;;14.80;65.51
73338;BME280;61575;49.908;35.556;2023-09-30T05:33:22;99865.66;;;15.04;64.17
73338;BME280;61575;49.908;35.556;2023-09-30T05:36:24;99864.00;;;15.24;62.50
73338;BME280;61575;49.908;35.556;2023-09-30T05:39:26;99868.03;;;15.50;61.60
73338;BME280;61575;49.908;35.556;2023-09-30T05:42:30;99875.59;;;15.76;61.19
73338;BME280;61575;49.908;35.556;2023-09-30T05:45:32;99873.50;;;15.99;60.56
73338;BME280;61575;49.908;35.556;2023-09-30T05:48:37;99875.75;;;16.23;59.75
73338;BME280;61575;49.908;35.556;2023-09-30T05:51:41;99870.72;;;16.48;58.84
73338;BME280;61575;49.908;35.556;2023-09-30T05:54:43;99865.88;;;16.72;57.94
73338;BME280;61575;49.908;35.556;2023-09-30T05:57:46;99869.94;;;16.95;57.48
73338;BME280;61575;49.908;35.556;2023-09-30T06:00:48;99876.06;;;17.17;57.09
73338;BME280;61575;49.908;35.556;2023-09-30T06:03:51;99870.50;;;17.39;56.46
73338;BME280;61575;49.908;35.556;2023-09-30T06:06:53;99870.56;;;17.58;55.48
73338;BME280;61575;49.908;35.556;2023-09-30T06:09:55;99860.13;;;17.75;53.80
73338;BME280;61575;49.908;35.556;2023-09-30T06:12:57;99869.53;;;17.99;53.15
73338;BME280;61575;49.908;35.556;2023-09-30T06:16:00;99863.25;;;18.18;51.98
73338;BME280;61575;49.908;35.556;2023-09-30T06:19:04;99876.00;;;18.44;51.20
73338;BME280;61575;49.908;35.556;2023-09-30T06:22:06;99862.56;;;18.69;50.66
73338;BME280;61575;49.908;35.556;2023-09-30T06:25:09;99863.50;;;18.94;49.91
73338;BME280;61575;49.908;35.556;2023-09-30T06:28:11;99862.50;;;19.27;49.54
73338;BME280;61575;49.908;35.556;2023-09-30T06:31:15;99858.34;;;19.63;48.83
73338;BME280;61575;49.908;35.556;2023-09-30T06:34:17;99863.16;;;19.85;47.97
73338;BME280;61575;49.908;35.556;2023-09-30T06:37:19;99855.63;;;20.12;47.29
73338;BME280;61575;49.908;35.556;2023-09-30T06:40:21;99855.38;;;20.39;46.10
73338;BME280;61575;49.908;35.556;2023-09-30T06:43:23;99848.78;;;20.65;45.48
73338;BME280;61575;49.908;35.556;2023-09-30T06:46:26;99851.59;;;20.95;44.51
73338;BME280;61575;49.908;35.556;2023-09-30T06:49:28;99848.75;;;21.19;44.38
73338;BME280;61575;49.908;35.556;2023-09-30T06:52:30;99847.66;;;21.39;42.31
73338;BME280;61575;49.908;35.556;2023-09-30T06:55:32;99854.53;;;21.71;42.39
73338;BME280;61575;49.908;35.556;2023-09-30T06:58:34;99847.69;;;22.04;41.55
73338;BME280;61575;49.908;35.556;2023-09-30T07:01:37;99841.75;;;22.30;40.15
73338;BME280;61575;49.908;35.556;2023-09-30T07:04:39;99842.84;;;22.53;39.35
73338;BME280;61575;49.908;35.556;2023-09-30T07:07:41;99838.19;;;22.65;38.75
73338;BME280;61575;49.908;35.556;2023-09-30T07:10:47;99836.59;;;22.80;37.77
73338;BME280;61575;49.908;35.556;2023-09-30T07:13:51;99840.69;;;23.06;36.85
73338;BME280;61575;49.908;35.556;2023-09-30T07:16:53;99839.31;;;23.32;36.90
73338;BME280;61575;49.908;35.556;2023-09-30T07:19:56;99842.66;;;23.51;36.51
73338;BME280;61575;49.908;35.556;2023-09-30T07:23:01;99839.69;;;23.53;35.54
73338;BME280;61575;49.908;35.556;2023-09-30T07:26:26;99836.28;;;23.79;34.80
73338;BME280;61575;49.908;35.556;2023-09-30T07:29:29;99834.00;;;24.04;34.72
73338;BME280;61575;49.908;35.556;2023-09-30T07:32:31;99831.50;;;24.20;34.86
73338;BME280;61575;49.908;35.556;2023-09-30T07:35:33;99831.03;;;24.45;34.83
73338;BME280;61575;49.908;35.556;2023-09-30T07:38:35;99834.66;;;24.67;34.51
73338;BME280;61575;49.908;35.556;2023-09-30T07:41:37;99832.69;;;24.84;33.77
73338;BME280;61575;49.908;35.556;2023-09-30T07:44:39;99839.91;;;24.90;33.61
73338;BME280;61575;49.908;35.556;2023-09-30T07:47:41;99831.94;;;25.16;33.34
73338;BME280;61575;49.908;35.556;2023-09-30T07:50:43;99836.84;;;25.35;33.01
73338;BME280;61575;49.908;35.556;2023-09-30T07:53:45;99818.53;;;25.46;33.23
73338;BME280;61575;49.908;35.556;2023-09-30T07:56:47;99823.00;;;25.52;32.84
73338;BME280;61575;49.908;35.556;2023-09-30T07:59:50;99827.63;;;25.79;32.13
73338;BME280;61575;49.908;35.556;2023-09-30T08:02:52;99816.75;;;25.89;32.44
73338;BME280;61575;49.908;35.556;2023-09-30T08:05:55;99813.59;;;26.12;32.22
73338;BME280;61575;49.908;35.556;2023-09-30T08:08:58;99817.88;;;26.35;32.34
73338;BME280;61575;49.908;35.556;2023-09-30T08:12:00;99807.22;;;26.49;31.18
73338;BME280;61575;49.908;35.556;2023-09-30T08:15:02;99815.00;;;26.57;31.00
73338;BME280;61575;49.908;35.556;2023-09-30T08:18:05;99808.75;;;26.77;30.82
73338;BME280;61575;49.908;35.556;2023-09-30T08:21:10;99811.22;;;26.73;30.83
73338;BME280;61575;49.908;35.556;2023-09-30T08:24:15;99812.09;;;26.79;31.08
73338;BME280;61575;49.908;35.556;2023-09-30T08:27:17;99806.84;;;26.82;29.18
73338;BME280;61575;49.908;35.556;2023-09-30T08:30:19;99812.63;;;26.81;30.79
73338;BME280;61575;49.908;35.556;2023-09-30T08:33:21;99813.50;;;26.91;30.53
73338;BME280;61575;49.908;35.556;2023-09-30T08:36:23;99808.56;;;26.99;30.47
73338;BME280;61575;49.908;35.556;2023-09-30T08:39:27;99804.69;;;26.89;29.68
73338;BME280;61575;49.908;35.556;2023-09-30T08:42:32;99803.03;;;26.88;29.22
73338;BME280;61575;49.908;35.556;2023-09-30T08:45:39;99807.97;;;26.86;28.96
73338;BME280;61575;49.908;35.556;2023-09-30T08:48:45;99803.28;;;26.87;29.34
73338;BME280;61575;49.908;35.556;2023-09-30T08:51:48;99805.22;;;26.86;28.98
73338;BME280;61575;49.908;35.556;2023-09-30T08:54:52;99797.50;;;26.88;28.97
73338;BME280;61575;49.908;35.556;2023-09-30T08:57:54;99795.06;;;26.97;29.27
73338;BME280;61575;49.908;35.556;2023-09-30T09:00:58;99801.44;;;27.08;28.83
73338;BME280;61575;49.908;35.556;2023-09-30T09:04:00;99796.19;;;27.06;28.51
73338;BME280;61575;49.908;35.556;2023-09-30T09:07:03;99792.66;;;27.21;28.64
73338;BME280;61575;49.908;35.556;2023-09-30T09:10:08;99796.81;;;27.28;28.62
73338;BME280;61575;49.908;35.556;2023-09-30T09:13:10;99790.78;;;27.47;28.88
73338;BME280;61575;49.908;35.556;2023-09-30T09:16:12;99796.84;;;27.44;28.34
73338;BME280;61575;49.908;35.556;2023-09-30T09:19:15;99783.59;;;27.46;28.45
73338;BME280;61575;49.908;35.556;2023-09-30T09:22:17;99779.75;;;27.52;27.72
73338;BME280;61575;49.908;35.556;2023-09-30T09:25:19;99784.44;;;27.56;27.25
73338;BME280;61575;49.908;35.556;2023-09-30T09:28:34;99773.97;;;27.64;26.93
73338;BME280;61575;49.908;35.556;2023-09-30T09:31:37;99777.81;;;27.57;27.01
73338;BME280;61575;49.908;35.556;2023-09-30T09:34:39;99775.06;;;27.42;26.71
73338;BME280;61575;49.908;35.556;2023-09-30T09:37:41;99773.94;;;27.48;27.03
73338;BME280;61575;49.908;35.556;2023-09-30T09:40:43;99768.88;;;27.05;27.30
73338;BME280;61575;49.908;35.556;2023-09-30T09:43:48;99768.69;;;27.26;27.66
73338;BME280;61575;49.908;35.556;2023-09-30T09:46:51;99765.38;;;27.24;27.78
73338;BME280;61575;49.908;35.556;2023-09-30T09:49:55;99760.16;;;27.33;27.72
73338;BME280;61575;49.908;35.556;2023-09-30T09:53:00;99754.63;;;27.33;27.98
73338;BME280;61575;49.908;35.556;2023-09-30T09:56:03;99748.84;;;27.24;27.56
73338;BME280;61575;49.908;35.556;2023-09-30T09:59:07;99749.09;;;27.18;27.90
73338;BME280;61575;49.908;35.556;2023-09-30T10:02:13;99752.97;;;27.17;28.46
73338;BME280;61575;49.908;35.556;2023-09-30T10:05:17;99743.56;;;27.13;27.94
73338;BME280;61575;49.908;35.556;2023-09-30T10:08:21;99743.25;;;27.09;27.85
73338;BME280;61575;49.908;35.556;2023-09-30T10:11:29;99734.41;;;26.97;28.22
73338;BME280;61575;49.908;35.556;2023-09-30T10:14:33;99733.81;;;26.80;27.62
73338;BME280;61575;49.908;35.556;2023-09-30T10:21:09;99728.56;;;26.73;28.22
73338;BME280;61575;49.908;35.556;2023-09-30T10:24:29;99724.38;;;26.55;26.97
73338;BME280;61575;49.908;35.556;2023-09-30T10:27:32;99721.00;;;26.48;28.50
73338;BME280;61575;49.908;35.556;2023-09-30T10:31:11;99714.38;;;26.44;27.80
73338;BME280;61575;49.908;35.556;2023-09-30T10:34:49;99715.16;;;26.29;27.77
73338;BME280;61575;49.908;35.556;2023-09-30T10:44:47;99706.81;;;26.14;28.27
73338;BME280;61575;49.908;35.556;2023-09-30T10:47:49;99702.94;;;26.10;27.74
73338;BME280;61575;49.908;35.556;2023-09-30T10:50:57;99699.91;;;26.12;27.73
73338;BME280;61575;49.908;35.556;2023-09-30T10:54:02;99695.22;;;26.07;28.21
73338;BME280;61575;49.908;35.556;2023-09-30T10:57:05;99696.00;;;25.97;27.63
73338;BME280;61575;49.908;35.556;2023-09-30T11:00:10;99692.84;;;25.84;26.55
73338;BME280;61575;49.908;35.556;2023-09-30T11:03:13;99690.88;;;25.74;27.23
73338;BME280;61575;49.908;35.556;2023-09-30T11:06:16;99680.66;;;25.69;27.24
73338;BME280;61575;49.908;35.556;2023-09-30T11:09:23;99690.00;;;25.68;27.68
73338;BME280;61575;49.908;35.556;2023-09-30T11:12:25;99678.41;;;25.61;27.47
73338;BME280;61575;49.908;35.556;2023-09-30T11:15:27;99675.03;;;25.54;26.91
73338;BME280;61575;49.908;35.556;2023-09-30T11:18:29;99668.94;;;25.47;27.16
73338;BME280;61575;49.908;35.556;2023-09-30T11:21:32;99667.81;;;25.43;27.14
73338;BME280;61575;49.908;35.556;2023-09-30T11:24:36;99666.13;;;25.37;26.65
73338;BME280;61575;49.908;35.556;2023-09-30T11:27:39;99665.81;;;25.33;27.17
73338;BME280;61575;49.908;35.556;2023-09-30T11:31:01;99664.44;;;25.31;26.48
73338;BME280;61575;49.908;35.556;2023-09-30T11:34:10;99657.78;;;25.27;26.71
73338;BME280;61575;49.908;35.556;2023-09-30T11:37:13;99659.97;;;25.25;27.06
73338;BME280;61575;49.908;35.556;2023-09-30T11:40:16;99652.75;;;25.19;26.84
73338;BME280;61575;49.908;35.556;2023-09-30T11:43:18;99658.47;;;25.12;26.81
73338;BME280;61575;49.908;35.556;2023-09-30T11:46:20;99651.84;;;25.08;26.72
73338;BME280;61575;49.908;35.556;2023-09-30T11:52:28;99645.22;;;25.04;26.49
73338;BME280;61575;49.908;35.556;2023-09-30T11:55:30;99641.88;;;25.02;26.23
73338;BME280;61575;49.908;35.556;2023-09-30T11:58:32;99639.88;;;24.92;25.86
73338;BME280;61575;49.908;35.556;2023-09-30T12:01:34;99641.00;;;24.96;26.05
73338;BME280;61575;49.908;35.556;2023-09-30T12:04:37;99640.44;;;24.94;25.27
73338;BME280;61575;49.908;35.556;2023-09-30T12:07:39;99635.78;;;24.90;25.42
73338;BME280;61575;49.908;35.556;2023-09-30T12:10:43;99639.88;;;24.87;25.64
73338;BME280;61575;49.908;35.556;2023-09-30T12:13:46;99639.28;;;24.85;25.86
73338;BME280;61575;49.908;35.556;2023-09-30T12:16:50;99632.72;;;24.86;25.93
73338;BME280;61575;49.908;35.556;2023-09-30T12:19:52;99633.50;;;24.82;25.47
73338;BME280;61575;49.908;35.556;2023-09-30T12:22:54;99624.94;;;24.78;26.45
73338;BME280;61575;49.908;35.556;2023-09-30T12:25:56;99625.16;;;24.71;26.18
73338;BME280;61575;49.908;35.556;2023-09-30T12:29:11;99624.22;;;24.61;26.08
73338;BME280;61575;49.908;35.556;2023-09-30T12:32:14;99629.59;;;24.51;25.93
73338;BME280;61575;49.908;35.556;2023-09-30T12:35:16;99628.44;;;24.47;26.27
73338;BME280;61575;49.908;35.556;2023-09-30T12:38:21;99628.38;;;24.42;26.61
73338;BME280;61575;49.908;35.556;2023-09-30T12:41:23;99616.22;;;24.32;26.24
73338;BME280;61575;49.908;35.556;2023-09-30T12:44:25;99604.09;;;24.28;26.08
73338;BME280;61575;49.908;35.556;2023-09-30T12:47:27;99612.78;;;24.20;26.41
73338;BME280;61575;49.908;35.556;2023-09-30T12:50:29;99609.97;;;24.15;26.71
73338;BME280;61575;49.908;35.556;2023-09-30T12:53:32;99607.69;;;24.07;26.38
73338;BME280;61575;49.908;35.556;2023-09-30T12:56:34;99603.72;;;23.98;26.45
73338;BME280;61575;49.908;35.556;2023-09-30T12:59:37;99602.56;;;23.94;26.64
73338;BME280;61575;49.908;35.556;2023-09-30T13:02:39;99599.19;;;23.87;26.59
73338;BME280;61575;49.908;35.556;2023-09-30T13:05:41;99591.81;;;23.70;25.57
73338;BME280;61575;49.908;35.556;2023-09-30T13:08:45;99585.81;;;23.73;26.72
73338;BME280;61575;49.908;35.556;2023-09-30T13:11:47;99583.84;;;23.69;26.78
73338;BME280;61575;49.908;35.556;2023-09-30T13:14:49;99580.38;;;23.57;26.37
73338;BME280;61575;49.908;35.556;2023-09-30T13:17:51;99578.72;;;23.56;26.62
73338;BME280;61575;49.908;35.556;2023-09-30T13:20:53;99582.22;;;23.51;26.39
73338;BME280;61575;49.908;35.556;2023-09-30T13:23:55;99577.25;;;23.48;26.55
73338;BME280;61575;49.908;35.556;2023-09-30T13:26:57;99572.22;;;23.40;26.30
73338;BME280;61575;49.908;35.556;2023-09-30T13:29:59;99577.03;;;23.33;26.37
73338;BME280;61575;49.908;35.556;2023-09-30T13:33:01;99571.97;;;23.25;26.47
73338;BME280;61575;49.908;35.556;2023-09-30T13:36:03;99570.25;;;23.19;26.67
73338;BME280;61575;49.908;35.556;2023-09-30T13:39:05;99578.03;;;23.10;27.01
73338;BME280;61575;49.908;35.556;2023-09-30T13:42:07;99570.31;;;23.07;27.09
73338;BME280;61575;49.908;35.556;2023-09-30T13:45:10;99564.75;;;23.02;27.46
73338;BME280;61575;49.908;35.556;2023-09-30T13:48:12;99559.69;;;22.94;28.00
73338;BME280;61575;49.908;35.556;2023-09-30T13:51:14;99577.03;;;22.83;28.95
73338;BME280;61575;49.908;35.556;2023-09-30T13:54:16;99564.00;;;22.73;29.29
73338;BME280;61575;49.908;35.556;2023-09-30T13:57:18;99560.03;;;22.64;29.73
73338;BME280;61575;49.908;35.556;2023-09-30T14:00:20;99565.31;;;22.54;30.56
73338;BME280;61575;49.908;35.556;2023-09-30T14:03:23;99564.28;;;22.43;31.88
73338;BME280;61575;49.908;35.556;2023-09-30T14:06:28;99556.97;;;22.32;32.37
73338;BME280;61575;49.908;35.556;2023-09-30T14:09:32;99557.09;;;22.25;32.05
73338;BME280;61575;49.908;35.556;2023-09-30T14:12:37;99554.75;;;22.17;32.48
73338;BME280;61575;49.908;35.556;2023-09-30T14:15:41;99557.31;;;22.07;33.57
73338;BME280;61575;49.908;35.556;2023-09-30T14:18:43;99564.22;;;21.98;34.52
73338;BME280;61575;49.908;35.556;2023-09-30T14:21:47;99551.69;;;21.85;36.02
73338;BME280;61575;49.908;35.556;2023-09-30T14:24:50;99561.69;;;21.79;37.63
73338;BME280;61575;49.908;35.556;2023-09-30T14:27:52;99547.41;;;21.66;40.34
73338;BME280;61575;49.908;35.556;2023-09-30T14:30:54;99551.94;;;21.60;38.72
73338;BME280;61575;49.908;35.556;2023-09-30T14:33:56;99550.88;;;21.61;39.94
73338;BME280;61575;49.908;35.556;2023-09-30T14:36:58;99542.91;;;21.71;40.68
73338;BME280;61575;49.908;35.556;2023-09-30T14:40:01;99541.78;;;21.96;41.14
73338;BME280;61575;49.908;35.556;2023-09-30T14:43:07;99538.84;;;22.14;41.33
73338;BME280;61575;49.908;35.556;2023-09-30T14:46:09;99536.31;;;21.96;41.17
73338;BME280;61575;49.908;35.556;2023-09-30T14:49:11;99539.47;;;21.64;41.42
73338;BME280;61575;49.908;35.556;2023-09-30T14:52:13;99542.72;;;21.38;42.49
73338;BME280;61575;49.908;35.556;2023-09-30T14:55:15;99532.28;;;21.00;43.30
73338;BME280;61575;49.908;35.556;2023-09-30T14:58:18;99537.59;;;20.83;43.52
73338;BME280;61575;49.908;35.556;2023-09-30T15:01:20;99548.00;;;20.63;44.73
73338;BME280;61575;49.908;35.556;2023-09-30T15:04:22;99548.97;;;20.27;46.70
73338;BME280;61575;49.908;35.556;2023-09-30T15:07:25;99542.25;;;20.11;46.50
73338;BME280;61575;49.908;35.556;2023-09-30T15:10:30;99541.09;;;19.88;45.96
73338;BME280;61575;49.908;35.556;2023-09-30T15:13:32;99544.69;;;19.71;46.55
73338;BME280;61575;49.908;35.556;2023-09-30T15:16:34;99554.56;;;19.53;47.51
73338;BME280;61575;49.908;35.556;2023-09-30T15:19:37;99550.09;;;19.41;47.84
73338;BME280;61575;49.908;35.556;2023-09-30T15:22:39;99548.53;;;19.26;48.01
73338;BME280;61575;49.908;35.556;2023-09-30T15:25:44;99548.50;;;19.08;48.58
73338;BME280;61575;49.908;35.556;2023-09-30T15:28:46;99554.69;;;18.97;48.69
73338;BME280;61575;49.908;35.556;2023-09-30T15:31:49;99553.13;;;18.83;48.99
73338;BME280;61575;49.908;35.556;2023-09-30T15:34:51;99553.25;;;18.70;49.34
73338;BME280;61575;49.908;35.556;2023-09-30T15:37:53;99567.19;;;18.55;49.53
73338;BME280;61575;49.908;35.556;2023-09-30T15:40:56;99563.50;;;18.43;49.85
73338;BME280;61575;49.908;35.556;2023-09-30T15:44:23;99558.94;;;18.30;50.14
73338;BME280;61575;49.908;35.556;2023-09-30T15:47:24;99560.47;;;18.19;50.13
73338;BME280;61575;49.908;35.556;2023-09-30T15:50:27;99554.50;;;18.04;50.80
73338;BME280;61575;49.908;35.556;2023-09-30T15:53:30;99557.06;;;17.92;50.95
73338;BME280;61575;49.908;35.556;2023-09-30T15:56:35;99556.09;;;17.80;51.18
73338;BME280;61575;49.908;35.556;2023-09-30T15:59:56;99561.34;;;17.69;51.41
73338;BME280;61575;49.908;35.556;2023-09-30T16:02:59;99560.56;;;17.55;51.53
73338;BME280;61575;49.908;35.556;2023-09-30T16:06:04;99562.44;;;17.48;51.39
73338;BME280;61575;49.908;35.556;2023-09-30T16:09:08;99554.75;;;17.38;51.58
73338;BME280;61575;49.908;35.556;2023-09-30T16:12:11;99562.28;;;17.29;51.51